Main page
METAR-TAF:

METAR-TAF

Airports :

Biarritz, France

Biarritz Pays Basque Airport

latitude: 43-28N, longitude: 001-32W, elevation: 75 m

Current weather observation

The report was made 27 minutes ago, at 07:00 UTC
Wind 6 kt from the South, varying between South/Southeast and Southwest
Temperature 15°C
Humidity 36%
Pressure 1012 hPa
Visibility 10 km or more
no clouds below 1500 m and no cumulonimbus

METAR: LFBZ 220700Z AUTO 19006KT 150V230 CAVOK 15/00 Q1012 NOSIG

Time: 08:27 (07:27 UTC)

Forecast

The report was made 2 hours and 27 minutes ago, at 05:00 UTC
Forecast valid from 22 at 06 UTC to 23 at 06 UTC
Wind 7 kt from the South
Visibility 10 km or more
no clouds below 1500 m and no cumulonimbus
Temporary
from 22 at 09 UTC to 23 at 06 UTC
Wind 15 kt from the South/Southwest with gusts up to 25 kt
Probability 40% :
Temporary
from 22 at 21 UTC to 23 at 03 UTC
Wind 20 kt from the South/Southwest with gusts up to 30 kt

TAF: LFBZ 220500Z 2206/2306 18007KT CAVOK TEMPO 2209/2306 20015G25KT PROB40 TEMPO 2221/2303 20020G30KT

Weather observations and forecasts of more than 4000 airports (METAR and TAF reports).

The available stations are represented by yellow and red dots on the map.

Hover mouse over dot to see the name of the station.

Then click to see weather observations and forecasts.

To change the map : click on the green buttons with a black cross to zoom in, on the green button with a dash to zoom out, or on the green arrows for adjacent maps.


METAR-TAF: